LICT

Vincenzo Florio Trapani-Birgi Airport

Trapani, Italy
TAF LICT 182300Z 1900/1909 34010KT 9999 FEW025 SCT030 BECMG 1900/1902 VRB03KT
Issued Valid From Valid To
Dec-18 @ 23:00 UTC
(an hour ago)
Dec-19 @ 00:00 UTC
(19 minutes ago)
Dec-19 @ 09:00 UTC
(in 9 hours)
Dec-19 @ 00:00 to Dec-19 @ 09:00
TAF LICT 182300Z 1900/1909 34010KT 9999 FEW025 SCT030
Wind Visibility Clouds
340° at 10 knots 10,000+ meters
  • Few at 2,500' AGL
  • Scattered at 3,000' AGL
Becoming Dec-19 @ 00:00 to Dec-19 @ 09:00
BECMG 1900/1902 VRB03KT
Wind Visibility Clouds
Variable at 3 knots 10,000+ meters
  • Few at 2,500' AGL
  • Scattered at 3,000' AGL
TAF LICT 182300Z 1900/1909 34010KT 9999 FEW025 SCT030 BECMG 1900/1902 VRB03KT
Issued Dec-18 @ 23:00 UTC
(an hour ago)
Valid From Dec-19 @ 00:00 UTC
(19 minutes ago)
Valid To Dec-19 @ 09:00 UTC
(in 9 hours)
Dec-19 @ 00:00 - Dec-19 @ 09:00
Wind Visibility
340° at 10 knots 10,000+ meters
Clouds
  • Few at 2,500' AGL
  • Scattered at 3,000' AGL
Becoming Dec-19 @ 00:00 - Dec-19 @ 09:00
Wind Visibility
Variable at 3 knots 10,000+ meters
Clouds
  • Few at 2,500' AGL
  • Scattered at 3,000' AGL